Terminal Aerodrome Forecast
Issued by NWS Paducah, KY

Home | Current Version | Previous Version | Text Only | Print | Product List | Glossary On
Versions: 1 2 3 4 5 6 7 8 9 10 11 12 13 14 15 16 17 18 19 20 21 22 23 24
697
FTUS43 KPAH 261912 AAC
TAFEVV
TAF AMD
KEVV 261912Z 2619/2718 22010G18KT P6SM OVC035
     FM262300 20003KT P6SM SCT040 BKN250
     FM271500 21010KT 6SM -SHRA BR SCT015 OVC030=

USA.gov is the U.S. government's official web portal to all federal, state and local government web resources and services.